sensor_id;sensor_type;location;lat;lon;timestamp;temperature;humidity
24412;DHT22;12544;46.760;15.942;2022-12-07T00:01:46;3.80;99.90
24412;DHT22;12544;46.760;15.942;2022-12-07T00:04:15;3.70;99.90
24412;DHT22;12544;46.760;15.942;2022-12-07T00:06:44;3.70;99.90
24412;DHT22;12544;46.760;15.942;2022-12-07T00:09:13;3.60;99.90
24412;DHT22;12544;46.760;15.942;2022-12-07T00:11:39;3.60;99.90
24412;DHT22;12544;46.760;15.942;2022-12-07T00:14:07;3.60;99.90
24412;DHT22;12544;46.760;15.942;2022-12-07T00:16:34;3.50;99.90
24412;DHT22;12544;46.760;15.942;2022-12-07T00:19:00;3.40;99.90
24412;DHT22;12544;46.760;15.942;2022-12-07T00:21:28;3.40;99.90
24412;DHT22;12544;46.760;15.942;2022-12-07T00:23:55;3.30;99.90
24412;DHT22;12544;46.760;15.942;2022-12-07T00:28:59;3.30;99.90
24412;DHT22;12544;46.760;15.942;2022-12-07T00:31:29;3.30;99.90
24412;DHT22;12544;46.760;15.942;2022-12-07T00:34:01;3.20;99.90
24412;DHT22;12544;46.760;15.942;2022-12-07T00:36:27;3.30;99.90
24412;DHT22;12544;46.760;15.942;2022-12-07T00:38:59;3.40;99.90
24412;DHT22;12544;46.760;15.942;2022-12-07T00:41:31;3.40;99.90
24412;DHT22;12544;46.760;15.942;2022-12-07T00:43:58;3.50;99.90
24412;DHT22;12544;46.760;15.942;2022-12-07T00:46:24;3.50;99.90
24412;DHT22;12544;46.760;15.942;2022-12-07T00:48:51;3.50;99.90
24412;DHT22;12544;46.760;15.942;2022-12-07T00:51:20;3.50;99.90
24412;DHT22;12544;46.760;15.942;2022-12-07T00:53:46;3.50;99.90
24412;DHT22;12544;46.760;15.942;2022-12-07T00:56:17;3.50;99.90
24412;DHT22;12544;46.760;15.942;2022-12-07T00:58:54;3.50;99.90
24412;DHT22;12544;46.760;15.942;2022-12-07T01:01:36;3.60;99.90
24412;DHT22;12544;46.760;15.942;2022-12-07T01:04:09;3.40;99.90
24412;DHT22;12544;46.760;15.942;2022-12-07T01:06:38;3.20;99.90
24412;DHT22;12544;46.760;15.942;2022-12-07T01:09:10;3.10;99.90
24412;DHT22;12544;46.760;15.942;2022-12-07T01:11:38;3.20;99.90
24412;DHT22;12544;46.760;15.942;2022-12-07T01:14:04;3.20;99.90
24412;DHT22;12544;46.760;15.942;2022-12-07T01:16:31;3.20;99.90
24412;DHT22;12544;46.760;15.942;2022-12-07T01:18:59;3.20;99.90
24412;DHT22;12544;46.760;15.942;2022-12-07T01:21:32;3.00;99.90
24412;DHT22;12544;46.760;15.942;2022-12-07T01:24:13;3.10;99.90
24412;DHT22;12544;46.760;15.942;2022-12-07T01:26:38;3.00;99.90
24412;DHT22;12544;46.760;15.942;2022-12-07T01:29:04;3.20;99.90
24412;DHT22;12544;46.760;15.942;2022-12-07T01:31:30;3.20;99.90
24412;DHT22;12544;46.760;15.942;2022-12-07T01:33:58;3.30;99.90
24412;DHT22;12544;46.760;15.942;2022-12-07T01:36:27;3.40;99.90
24412;DHT22;12544;46.760;15.942;2022-12-07T01:39:02;3.40;99.90
24412;DHT22;12544;46.760;15.942;2022-12-07T01:41:31;3.40;99.90
24412;DHT22;12544;46.760;15.942;2022-12-07T01:46:56;3.30;99.90
24412;DHT22;12544;46.760;15.942;2022-12-07T01:49:47;3.30;99.90
24412;DHT22;12544;46.760;15.942;2022-12-07T01:52:20;3.30;99.90
24412;DHT22;12544;46.760;15.942;2022-12-07T01:54:49;3.20;99.90
24412;DHT22;12544;46.760;15.942;2022-12-07T01:57:17;3.20;99.90
24412;DHT22;12544;46.760;15.942;2022-12-07T01:59:45;3.20;99.90
24412;DHT22;12544;46.760;15.942;2022-12-07T02:02:35;3.10;99.90
24412;DHT22;12544;46.760;15.942;2022-12-07T02:05:04;3.10;99.90
24412;DHT22;12544;46.760;15.942;2022-12-07T02:07:32;3.10;99.90
24412;DHT22;12544;46.760;15.942;2022-12-07T02:10:15;3.00;99.90
24412;DHT22;12544;46.760;15.942;2022-12-07T02:12:45;2.90;99.90
24412;DHT22;12544;46.760;15.942;2022-12-07T02:15:16;2.80;99.90
24412;DHT22;12544;46.760;15.942;2022-12-07T02:18:05;2.80;99.90
24412;DHT22;12544;46.760;15.942;2022-12-07T02:20:57;2.80;99.90
24412;DHT22;12544;46.760;15.942;2022-12-07T02:23:53;2.70;99.90
24412;DHT22;12544;46.760;15.942;2022-12-07T02:29:22;2.60;99.90
24412;DHT22;12544;46.760;15.942;2022-12-07T02:34:54;2.60;99.90
24412;DHT22;12544;46.760;15.942;2022-12-07T02:37:29;2.70;99.90
24412;DHT22;12544;46.760;15.942;2022-12-07T02:42:38;2.80;99.90
24412;DHT22;12544;46.760;15.942;2022-12-07T02:45:06;3.00;99.90
24412;DHT22;12544;46.760;15.942;2022-12-07T02:47:34;3.00;99.90
24412;DHT22;12544;46.760;15.942;2022-12-07T02:50:04;3.10;99.90
24412;DHT22;12544;46.760;15.942;2022-12-07T02:52:30;3.10;99.90
24412;DHT22;12544;46.760;15.942;2022-12-07T02:54:55;3.10;99.90
24412;DHT22;12544;46.760;15.942;2022-12-07T03:05:12;3.10;99.90
24412;DHT22;12544;46.760;15.942;2022-12-07T03:16:18;2.90;99.90
24412;DHT22;12544;46.760;15.942;2022-12-07T03:19:15;2.80;99.90
24412;DHT22;12544;46.760;15.942;2022-12-07T03:21:46;2.50;99.90
24412;DHT22;12544;46.760;15.942;2022-12-07T03:24:19;2.50;99.90
24412;DHT22;12544;46.760;15.942;2022-12-07T03:26:51;2.50;99.90
24412;DHT22;12544;46.760;15.942;2022-12-07T03:29:23;2.50;99.90
24412;DHT22;12544;46.760;15.942;2022-12-07T03:32:00;2.60;99.90
24412;DHT22;12544;46.760;15.942;2022-12-07T03:34:32;2.50;99.90
24412;DHT22;12544;46.760;15.942;2022-12-07T03:37:07;2.60;99.90
24412;DHT22;12544;46.760;15.942;2022-12-07T03:42:31;2.70;99.90
24412;DHT22;12544;46.760;15.942;2022-12-07T03:44:58;2.80;99.90
24412;DHT22;12544;46.760;15.942;2022-12-07T03:50:21;2.70;99.90
24412;DHT22;12544;46.760;15.942;2022-12-07T03:52:58;2.60;99.90
24412;DHT22;12544;46.760;15.942;2022-12-07T03:55:31;2.60;99.90
24412;DHT22;12544;46.760;15.942;2022-12-07T03:58:10;2.50;99.90
24412;DHT22;12544;46.760;15.942;2022-12-07T04:00:38;2.50;99.90
24412;DHT22;12544;46.760;15.942;2022-12-07T04:03:05;2.50;99.90
24412;DHT22;12544;46.760;15.942;2022-12-07T04:05:31;2.60;99.90
24412;DHT22;12544;46.760;15.942;2022-12-07T04:07:57;2.60;99.90
24412;DHT22;12544;46.760;15.942;2022-12-07T04:10:22;2.70;99.90
24412;DHT22;12544;46.760;15.942;2022-12-07T04:12:48;2.60;99.90
24412;DHT22;12544;46.760;15.942;2022-12-07T04:15:14;2.70;99.90
24412;DHT22;12544;46.760;15.942;2022-12-07T04:17:39;2.70;99.90
24412;DHT22;12544;46.760;15.942;2022-12-07T04:20:06;2.80;99.90
24412;DHT22;12544;46.760;15.942;2022-12-07T04:22:32;2.80;99.90
24412;DHT22;12544;46.760;15.942;2022-12-07T04:24:58;2.90;99.90
24412;DHT22;12544;46.760;15.942;2022-12-07T04:27:23;2.80;99.90
24412;DHT22;12544;46.760;15.942;2022-12-07T04:29:49;2.70;99.90
24412;DHT22;12544;46.760;15.942;2022-12-07T04:32:16;2.90;99.90
24412;DHT22;12544;46.760;15.942;2022-12-07T04:34:41;2.90;99.90
24412;DHT22;12544;46.760;15.942;2022-12-07T04:37:07;2.90;99.90
24412;DHT22;12544;46.760;15.942;2022-12-07T04:39:33;3.00;99.90
24412;DHT22;12544;46.760;15.942;2022-12-07T04:41:59;3.00;99.90
24412;DHT22;12544;46.760;15.942;2022-12-07T04:44:27;2.90;99.90
24412;DHT22;12544;46.760;15.942;2022-12-07T04:46:53;2.90;99.90
24412;DHT22;12544;46.760;15.942;2022-12-07T04:49:19;2.90;99.90
24412;DHT22;12544;46.760;15.942;2022-12-07T04:51:46;3.10;99.90
24412;DHT22;12544;46.760;15.942;2022-12-07T04:54:13;2.90;99.90
24412;DHT22;12544;46.760;15.942;2022-12-07T04:56:39;2.90;99.90
24412;DHT22;12544;46.760;15.942;2022-12-07T04:59:05;3.00;99.90
24412;DHT22;12544;46.760;15.942;2022-12-07T05:01:31;3.00;99.90
24412;DHT22;12544;46.760;15.942;2022-12-07T05:03:57;3.00;99.90
24412;DHT22;12544;46.760;15.942;2022-12-07T05:06:23;3.10;99.90
24412;DHT22;12544;46.760;15.942;2022-12-07T05:08:49;3.00;99.90
24412;DHT22;12544;46.760;15.942;2022-12-07T05:11:15;3.00;99.90
24412;DHT22;12544;46.760;15.942;2022-12-07T05:13:59;3.00;99.90
24412;DHT22;12544;46.760;15.942;2022-12-07T05:16:25;2.90;99.90
24412;DHT22;12544;46.760;15.942;2022-12-07T05:18:51;2.90;99.90
24412;DHT22;12544;46.760;15.942;2022-12-07T05:21:17;2.90;99.90
24412;DHT22;12544;46.760;15.942;2022-12-07T05:23:43;3.00;99.90
24412;DHT22;12544;46.760;15.942;2022-12-07T05:26:08;3.00;99.90
24412;DHT22;12544;46.760;15.942;2022-12-07T05:28:34;3.00;99.90
24412;DHT22;12544;46.760;15.942;2022-12-07T05:31:00;3.00;99.90
24412;DHT22;12544;46.760;15.942;2022-12-07T05:33:25;2.90;99.90
24412;DHT22;12544;46.760;15.942;2022-12-07T05:35:51;2.80;99.90
24412;DHT22;12544;46.760;15.942;2022-12-07T05:38:17;2.80;99.90
24412;DHT22;12544;46.760;15.942;2022-12-07T05:40:42;2.60;99.90
24412;DHT22;12544;46.760;15.942;2022-12-07T05:43:08;2.70;99.90
24412;DHT22;12544;46.760;15.942;2022-12-07T05:45:33;2.60;99.90
24412;DHT22;12544;46.760;15.942;2022-12-07T05:47:59;2.60;99.90
24412;DHT22;12544;46.760;15.942;2022-12-07T05:50:25;2.70;99.90
24412;DHT22;12544;46.760;15.942;2022-12-07T05:52:50;2.30;99.90
24412;DHT22;12544;46.760;15.942;2022-12-07T05:55:16;2.40;99.90
24412;DHT22;12544;46.760;15.942;2022-12-07T05:57:41;2.20;99.90
24412;DHT22;12544;46.760;15.942;2022-12-07T06:00:27;2.20;99.90
24412;DHT22;12544;46.760;15.942;2022-12-07T06:02:53;2.30;99.90
24412;DHT22;12544;46.760;15.942;2022-12-07T06:05:18;2.20;99.90
24412;DHT22;12544;46.760;15.942;2022-12-07T06:07:44;2.20;99.90
24412;DHT22;12544;46.760;15.942;2022-12-07T06:10:10;2.30;99.90
24412;DHT22;12544;46.760;15.942;2022-12-07T06:12:35;2.40;99.90
24412;DHT22;12544;46.760;15.942;2022-12-07T06:15:03;2.40;99.90
24412;DHT22;12544;46.760;15.942;2022-12-07T06:17:30;2.40;99.90
24412;DHT22;12544;46.760;15.942;2022-12-07T06:19:56;2.40;99.90
24412;DHT22;12544;46.760;15.942;2022-12-07T06:22:21;2.40;99.90
24412;DHT22;12544;46.760;15.942;2022-12-07T06:24:47;2.40;99.90
24412;DHT22;12544;46.760;15.942;2022-12-07T06:27:13;2.50;99.90
24412;DHT22;12544;46.760;15.942;2022-12-07T06:29:39;2.50;99.90
24412;DHT22;12544;46.760;15.942;2022-12-07T06:32:04;2.20;99.90
24412;DHT22;12544;46.760;15.942;2022-12-07T06:34:30;2.20;99.90
24412;DHT22;12544;46.760;15.942;2022-12-07T06:36:56;2.20;99.90
24412;DHT22;12544;46.760;15.942;2022-12-07T06:39:26;2.20;99.90
24412;DHT22;12544;46.760;15.942;2022-12-07T06:41:53;2.20;99.90
24412;DHT22;12544;46.760;15.942;2022-12-07T06:44:20;2.20;99.90
24412;DHT22;12544;46.760;15.942;2022-12-07T06:46:46;2.20;99.90
24412;DHT22;12544;46.760;15.942;2022-12-07T06:49:12;2.20;99.90
24412;DHT22;12544;46.760;15.942;2022-12-07T06:51:38;2.30;99.90
24412;DHT22;12544;46.760;15.942;2022-12-07T06:54:07;2.30;99.90
24412;DHT22;12544;46.760;15.942;2022-12-07T06:56:33;2.20;99.90
24412;DHT22;12544;46.760;15.942;2022-12-07T06:58:59;2.30;99.90
24412;DHT22;12544;46.760;15.942;2022-12-07T07:01:24;2.40;99.90
24412;DHT22;12544;46.760;15.942;2022-12-07T07:03:50;2.40;99.90
24412;DHT22;12544;46.760;15.942;2022-12-07T07:06:16;2.50;99.90
24412;DHT22;12544;46.760;15.942;2022-12-07T07:08:41;2.50;99.90
24412;DHT22;12544;46.760;15.942;2022-12-07T07:11:08;2.60;99.90
24412;DHT22;12544;46.760;15.942;2022-12-07T07:14:00;2.60;99.90
24412;DHT22;12544;46.760;15.942;2022-12-07T07:16:28;2.60;99.90
24412;DHT22;12544;46.760;15.942;2022-12-07T07:18:55;2.70;99.90
24412;DHT22;12544;46.760;15.942;2022-12-07T07:21:21;2.70;99.90
24412;DHT22;12544;46.760;15.942;2022-12-07T07:23:46;2.60;99.90
24412;DHT22;12544;46.760;15.942;2022-12-07T07:26:12;2.50;99.90
24412;DHT22;12544;46.760;15.942;2022-12-07T07:28:38;2.50;99.90
24412;DHT22;12544;46.760;15.942;2022-12-07T07:31:04;2.50;99.90
24412;DHT22;12544;46.760;15.942;2022-12-07T07:33:29;2.60;99.90
24412;DHT22;12544;46.760;15.942;2022-12-07T07:35:55;2.60;99.90
24412;DHT22;12544;46.760;15.942;2022-12-07T07:38:20;2.50;99.90
24412;DHT22;12544;46.760;15.942;2022-12-07T07:40:46;2.60;99.90
24412;DHT22;12544;46.760;15.942;2022-12-07T07:43:12;2.60;99.90
24412;DHT22;12544;46.760;15.942;2022-12-07T07:45:37;2.60;99.90
24412;DHT22;12544;46.760;15.942;2022-12-07T07:48:03;2.50;99.90
24412;DHT22;12544;46.760;15.942;2022-12-07T07:50:29;2.60;99.90
24412;DHT22;12544;46.760;15.942;2022-12-07T07:52:56;2.60;99.90
24412;DHT22;12544;46.760;15.942;2022-12-07T07:55:21;2.60;99.90
24412;DHT22;12544;46.760;15.942;2022-12-07T07:57:47;2.60;99.90
24412;DHT22;12544;46.760;15.942;2022-12-07T08:00:14;2.60;99.90
24412;DHT22;12544;46.760;15.942;2022-12-07T08:02:41;2.50;99.90
24412;DHT22;12544;46.760;15.942;2022-12-07T08:05:08;2.50;99.90
24412;DHT22;12544;46.760;15.942;2022-12-07T08:07:34;2.50;99.90
24412;DHT22;12544;46.760;15.942;2022-12-07T08:09:59;2.50;99.90
24412;DHT22;12544;46.760;15.942;2022-12-07T08:12:25;2.60;99.90
24412;DHT22;12544;46.760;15.942;2022-12-07T08:14:50;2.50;99.90
24412;DHT22;12544;46.760;15.942;2022-12-07T08:17:16;2.50;99.90
24412;DHT22;12544;46.760;15.942;2022-12-07T08:19:42;2.40;99.90
24412;DHT22;12544;46.760;15.942;2022-12-07T08:22:08;2.50;99.90
24412;DHT22;12544;46.760;15.942;2022-12-07T08:24:34;2.40;99.90
24412;DHT22;12544;46.760;15.942;2022-12-07T08:27:00;2.40;99.90
24412;DHT22;12544;46.760;15.942;2022-12-07T08:29:25;2.30;99.90
24412;DHT22;12544;46.760;15.942;2022-12-07T08:31:51;2.10;99.90
24412;DHT22;12544;46.760;15.942;2022-12-07T08:34:17;2.30;99.90
24412;DHT22;12544;46.760;15.942;2022-12-07T08:36:42;2.40;99.90
24412;DHT22;12544;46.760;15.942;2022-12-07T08:39:08;2.40;99.90
24412;DHT22;12544;46.760;15.942;2022-12-07T08:41:34;2.50;99.90
24412;DHT22;12544;46.760;15.942;2022-12-07T08:44:00;2.50;99.90
24412;DHT22;12544;46.760;15.942;2022-12-07T08:46:38;2.60;99.90
24412;DHT22;12544;46.760;15.942;2022-12-07T08:49:12;2.50;99.90
24412;DHT22;12544;46.760;15.942;2022-12-07T08:51:39;2.40;99.90
24412;DHT22;12544;46.760;15.942;2022-12-07T08:54:07;2.40;99.90
24412;DHT22;12544;46.760;15.942;2022-12-07T08:56:34;2.30;99.90
24412;DHT22;12544;46.760;15.942;2022-12-07T08:59:02;2.40;99.90
24412;DHT22;12544;46.760;15.942;2022-12-07T09:01:28;2.30;99.90
24412;DHT22;12544;46.760;15.942;2022-12-07T09:03:54;2.60;99.90
24412;DHT22;12544;46.760;15.942;2022-12-07T09:06:20;2.60;99.90
24412;DHT22;12544;46.760;15.942;2022-12-07T09:08:51;2.60;99.90
24412;DHT22;12544;46.760;15.942;2022-12-07T09:11:18;2.50;99.90
24412;DHT22;12544;46.760;15.942;2022-12-07T09:13:44;2.60;99.90
24412;DHT22;12544;46.760;15.942;2022-12-07T09:16:10;2.70;99.90
24412;DHT22;12544;46.760;15.942;2022-12-07T09:18:58;2.60;99.90
24412;DHT22;12544;46.760;15.942;2022-12-07T09:21:24;2.60;99.90
24412;DHT22;12544;46.760;15.942;2022-12-07T09:23:49;2.60;99.90
24412;DHT22;12544;46.760;15.942;2022-12-07T09:26:15;2.70;99.90
24412;DHT22;12544;46.760;15.942;2022-12-07T09:28:41;2.70;99.90
24412;DHT22;12544;46.760;15.942;2022-12-07T09:31:06;2.50;99.90
24412;DHT22;12544;46.760;15.942;2022-12-07T09:33:32;2.40;99.90
24412;DHT22;12544;46.760;15.942;2022-12-07T09:35:58;2.50;99.90
24412;DHT22;12544;46.760;15.942;2022-12-07T09:38:23;2.50;99.90
24412;DHT22;12544;46.760;15.942;2022-12-07T09:40:53;2.40;99.90
24412;DHT22;12544;46.760;15.942;2022-12-07T09:43:24;2.40;99.90
24412;DHT22;12544;46.760;15.942;2022-12-07T09:45:53;2.50;99.90
24412;DHT22;12544;46.760;15.942;2022-12-07T09:50:58;2.60;99.90
24412;DHT22;12544;46.760;15.942;2022-12-07T09:53:26;2.60;99.90
24412;DHT22;12544;46.760;15.942;2022-12-07T09:55:53;2.70;99.90
24412;DHT22;12544;46.760;15.942;2022-12-07T09:58:23;2.70;99.90
24412;DHT22;12544;46.760;15.942;2022-12-07T10:01:20;2.80;99.90
24412;DHT22;12544;46.760;15.942;2022-12-07T10:04:29;2.80;99.90
24412;DHT22;12544;46.760;15.942;2022-12-07T10:06:48;2.90;99.90
24412;DHT22;12544;46.760;15.942;2022-12-07T10:09:21;3.00;99.90
24412;DHT22;12544;46.760;15.942;2022-12-07T10:12:05;3.00;99.90
24412;DHT22;12544;46.760;15.942;2022-12-07T10:14:34;3.10;99.90
24412;DHT22;12544;46.760;15.942;2022-12-07T10:17:00;3.30;99.90
24412;DHT22;12544;46.760;15.942;2022-12-07T10:19:30;3.20;99.90
24412;DHT22;12544;46.760;15.942;2022-12-07T10:22:02;3.30;99.90
24412;DHT22;12544;46.760;15.942;2022-12-07T10:24:28;3.20;99.90
24412;DHT22;12544;46.760;15.942;2022-12-07T10:26:54;3.20;99.90
24412;DHT22;12544;46.760;15.942;2022-12-07T10:29:39;3.20;99.90
24412;DHT22;12544;46.760;15.942;2022-12-07T10:34:33;3.20;99.90
24412;DHT22;12544;46.760;15.942;2022-12-07T10:37:16;3.40;99.90
24412;DHT22;12544;46.760;15.942;2022-12-07T10:39:56;3.40;99.90
24412;DHT22;12544;46.760;15.942;2022-12-07T10:45:12;3.50;99.90
24412;DHT22;12544;46.760;15.942;2022-12-07T10:47:44;3.50;99.90
24412;DHT22;12544;46.760;15.942;2022-12-07T10:50:24;3.50;99.90
24412;DHT22;12544;46.760;15.942;2022-12-07T10:56:00;3.50;99.90
24412;DHT22;12544;46.760;15.942;2022-12-07T11:15:17;3.50;99.90
24412;DHT22;12544;46.760;15.942;2022-12-07T11:18:07;3.60;99.90
24412;DHT22;12544;46.760;15.942;2022-12-07T11:20:51;3.60;99.90
24412;DHT22;12544;46.760;15.942;2022-12-07T11:34:25;3.70;99.90
24412;DHT22;12544;46.760;15.942;2022-12-07T11:37:06;3.80;99.90
24412;DHT22;12544;46.760;15.942;2022-12-07T11:39:46;4.10;99.90
24412;DHT22;12544;46.760;15.942;2022-12-07T11:45:31;4.30;99.90
24412;DHT22;12544;46.760;15.942;2022-12-07T11:48:06;4.40;99.90
24412;DHT22;12544;46.760;15.942;2022-12-07T11:50:40;4.50;99.90
24412;DHT22;12544;46.760;15.942;2022-12-07T11:56:21;4.60;99.90
24412;DHT22;12544;46.760;15.942;2022-12-07T11:59:03;4.60;99.90
24412;DHT22;12544;46.760;15.942;2022-12-07T12:06:39;4.50;99.90
24412;DHT22;12544;46.760;15.942;2022-12-07T12:20:31;4.50;99.90
24412;DHT22;12544;46.760;15.942;2022-12-07T12:26:23;4.80;99.90
24412;DHT22;12544;46.760;15.942;2022-12-07T12:28:50;4.90;99.90
24412;DHT22;12544;46.760;15.942;2022-12-07T12:46:55;4.80;99.90
24412;DHT22;12544;46.760;15.942;2022-12-07T12:54:38;4.90;99.90
24412;DHT22;12544;46.760;15.942;2022-12-07T12:57:29;5.00;99.90
24412;DHT22;12544;46.760;15.942;2022-12-07T13:04:57;5.20;99.90
24412;DHT22;12544;46.760;15.942;2022-12-07T13:15:38;5.30;99.90
24412;DHT22;12544;46.760;15.942;2022-12-07T13:29:20;5.50;99.90
24412;DHT22;12544;46.760;15.942;2022-12-07T13:31:55;5.60;99.90
24412;DHT22;12544;46.760;15.942;2022-12-07T13:34:34;5.60;99.90
24412;DHT22;12544;46.760;15.942;2022-12-07T13:37:12;5.50;99.90
24412;DHT22;12544;46.760;15.942;2022-12-07T13:39:51;5.50;99.90
24412;DHT22;12544;46.760;15.942;2022-12-07T13:42:30;5.50;99.90
24412;DHT22;12544;46.760;15.942;2022-12-07T13:44:59;5.40;99.90
24412;DHT22;12544;46.760;15.942;2022-12-07T13:47:46;5.50;99.90
24412;DHT22;12544;46.760;15.942;2022-12-07T13:50:26;5.40;99.90
24412;DHT22;12544;46.760;15.942;2022-12-07T13:53:00;5.40;99.90
24412;DHT22;12544;46.760;15.942;2022-12-07T13:55:35;5.40;99.90
24412;DHT22;12544;46.760;15.942;2022-12-07T13:58:01;5.30;99.90
24412;DHT22;12544;46.760;15.942;2022-12-07T14:00:28;5.30;99.90
24412;DHT22;12544;46.760;15.942;2022-12-07T14:03:01;5.30;99.90
24412;DHT22;12544;46.760;15.942;2022-12-07T14:05:32;5.30;99.90
24412;DHT22;12544;46.760;15.942;2022-12-07T14:10:55;5.30;99.90
24412;DHT22;12544;46.760;15.942;2022-12-07T14:13:31;5.30;99.90
24412;DHT22;12544;46.760;15.942;2022-12-07T14:15:57;5.30;99.90
24412;DHT22;12544;46.760;15.942;2022-12-07T14:18:38;5.20;99.90
24412;DHT22;12544;46.760;15.942;2022-12-07T14:23:37;5.20;99.90
24412;DHT22;12544;46.760;15.942;2022-12-07T14:26:14;5.20;99.90
24412;DHT22;12544;46.760;15.942;2022-12-07T14:28:42;5.20;99.90
24412;DHT22;12544;46.760;15.942;2022-12-07T14:31:27;5.20;99.90
24412;DHT22;12544;46.760;15.942;2022-12-07T14:33:53;5.20;99.90
24412;DHT22;12544;46.760;15.942;2022-12-07T14:36:18;5.20;99.90
24412;DHT22;12544;46.760;15.942;2022-12-07T14:38:44;5.20;99.90
24412;DHT22;12544;46.760;15.942;2022-12-07T14:41:15;5.20;99.90
24412;DHT22;12544;46.760;15.942;2022-12-07T14:44:00;5.10;99.90
24412;DHT22;12544;46.760;15.942;2022-12-07T14:46:25;5.00;99.90
24412;DHT22;12544;46.760;15.942;2022-12-07T14:48:54;5.00;99.90
24412;DHT22;12544;46.760;15.942;2022-12-07T14:51:20;5.00;99.90
24412;DHT22;12544;46.760;15.942;2022-12-07T14:53:48;4.90;99.90
24412;DHT22;12544;46.760;15.942;2022-12-07T14:56:15;4.80;99.90
24412;DHT22;12544;46.760;15.942;2022-12-07T15:01:31;4.90;99.90
24412;DHT22;12544;46.760;15.942;2022-12-07T15:03:57;5.00;99.90
24412;DHT22;12544;46.760;15.942;2022-12-07T15:06:22;4.90;99.90
24412;DHT22;12544;46.760;15.942;2022-12-07T15:08:48;4.90;99.90
24412;DHT22;12544;46.760;15.942;2022-12-07T15:11:20;4.80;99.90
24412;DHT22;12544;46.760;15.942;2022-12-07T15:13:45;4.80;99.90
24412;DHT22;12544;46.760;15.942;2022-12-07T15:16:30;4.80;99.90
24412;DHT22;12544;46.760;15.942;2022-12-07T15:18:55;4.70;99.90
24412;DHT22;12544;46.760;15.942;2022-12-07T15:21:21;4.70;99.90
24412;DHT22;12544;46.760;15.942;2022-12-07T15:23:47;4.70;99.90
24412;DHT22;12544;46.760;15.942;2022-12-07T15:26:12;4.70;99.90
24412;DHT22;12544;46.760;15.942;2022-12-07T15:28:39;4.70;99.90
24412;DHT22;12544;46.760;15.942;2022-12-07T15:31:11;4.80;99.90
24412;DHT22;12544;46.760;15.942;2022-12-07T15:33:37;4.80;99.90
24412;DHT22;12544;46.760;15.942;2022-12-07T15:36:02;4.90;99.90
24412;DHT22;12544;46.760;15.942;2022-12-07T15:38:28;4.90;99.90
24412;DHT22;12544;46.760;15.942;2022-12-07T15:40:57;4.90;99.90
24412;DHT22;12544;46.760;15.942;2022-12-07T15:43:22;4.90;99.90
24412;DHT22;12544;46.760;15.942;2022-12-07T15:46:07;5.00;99.90
24412;DHT22;12544;46.760;15.942;2022-12-07T15:48:32;5.00;99.90
24412;DHT22;12544;46.760;15.942;2022-12-07T15:51:08;5.00;99.90
24412;DHT22;12544;46.760;15.942;2022-12-07T15:53:34;5.00;99.90
24412;DHT22;12544;46.760;15.942;2022-12-07T15:56:01;5.00;99.90
24412;DHT22;12544;46.760;15.942;2022-12-07T15:58:26;5.00;99.90
24412;DHT22;12544;46.760;15.942;2022-12-07T16:00:52;4.90;99.90
24412;DHT22;12544;46.760;15.942;2022-12-07T16:03:18;4.90;99.90
24412;DHT22;12544;46.760;15.942;2022-12-07T16:05:50;4.80;99.90
24412;DHT22;12544;46.760;15.942;2022-12-07T16:08:16;4.80;99.90
24412;DHT22;12544;46.760;15.942;2022-12-07T16:10:42;4.90;99.90
24412;DHT22;12544;46.760;15.942;2022-12-07T16:13:09;4.90;99.90
24412;DHT22;12544;46.760;15.942;2022-12-07T16:15:42;4.80;99.90
24412;DHT22;12544;46.760;15.942;2022-12-07T16:18:07;4.80;99.90
24412;DHT22;12544;46.760;15.942;2022-12-07T16:20:37;4.80;99.90
24412;DHT22;12544;46.760;15.942;2022-12-07T16:23:03;4.80;99.90
24412;DHT22;12544;46.760;15.942;2022-12-07T16:25:29;4.80;99.90
24412;DHT22;12544;46.760;15.942;2022-12-07T16:27:55;4.80;99.90
24412;DHT22;12544;46.760;15.942;2022-12-07T16:30:20;4.80;99.90
24412;DHT22;12544;46.760;15.942;2022-12-07T16:32:46;4.80;99.90
24412;DHT22;12544;46.760;15.942;2022-12-07T16:35:12;4.80;99.90
24412;DHT22;12544;46.760;15.942;2022-12-07T16:37:42;4.80;99.90
24412;DHT22;12544;46.760;15.942;2022-12-07T16:40:08;4.70;99.90
24412;DHT22;12544;46.760;15.942;2022-12-07T16:42:35;4.70;99.90
24412;DHT22;12544;46.760;15.942;2022-12-07T16:45:01;4.60;99.90
24412;DHT22;12544;46.760;15.942;2022-12-07T16:47:27;4.60;99.90
24412;DHT22;12544;46.760;15.942;2022-12-07T16:49:55;4.50;99.90
24412;DHT22;12544;46.760;15.942;2022-12-07T16:52:21;4.40;99.90
24412;DHT22;12544;46.760;15.942;2022-12-07T16:54:48;4.40;99.90
24412;DHT22;12544;46.760;15.942;2022-12-07T16:57:14;4.40;99.90
24412;DHT22;12544;46.760;15.942;2022-12-07T16:59:40;4.40;99.90
24412;DHT22;12544;46.760;15.942;2022-12-07T17:02:05;4.30;99.90
24412;DHT22;12544;46.760;15.942;2022-12-07T17:04:33;4.30;99.90
24412;DHT22;12544;46.760;15.942;2022-12-07T17:07:00;4.30;99.90
24412;DHT22;12544;46.760;15.942;2022-12-07T17:09:25;4.30;99.90
24412;DHT22;12544;46.760;15.942;2022-12-07T17:11:51;4.40;99.90
24412;DHT22;12544;46.760;15.942;2022-12-07T17:14:35;4.30;99.90
24412;DHT22;12544;46.760;15.942;2022-12-07T17:17:19;4.30;99.90
24412;DHT22;12544;46.760;15.942;2022-12-07T17:19:44;4.40;99.90
24412;DHT22;12544;46.760;15.942;2022-12-07T17:22:10;4.30;99.90
24412;DHT22;12544;46.760;15.942;2022-12-07T17:24:38;4.30;99.90
24412;DHT22;12544;46.760;15.942;2022-12-07T17:27:03;4.30;99.90
24412;DHT22;12544;46.760;15.942;2022-12-07T17:29:29;4.30;99.90
24412;DHT22;12544;46.760;15.942;2022-12-07T17:31:55;4.30;99.90
24412;DHT22;12544;46.760;15.942;2022-12-07T17:34:20;4.30;99.90
24412;DHT22;12544;46.760;15.942;2022-12-07T17:36:46;4.30;99.90
24412;DHT22;12544;46.760;15.942;2022-12-07T17:39:15;4.20;99.90
24412;DHT22;12544;46.760;15.942;2022-12-07T17:41:43;4.10;99.90
24412;DHT22;12544;46.760;15.942;2022-12-07T17:44:28;4.10;99.90
24412;DHT22;12544;46.760;15.942;2022-12-07T17:46:54;4.20;99.90
24412;DHT22;12544;46.760;15.942;2022-12-07T17:49:22;4.20;99.90
24412;DHT22;12544;46.760;15.942;2022-12-07T17:51:48;4.30;99.90
24412;DHT22;12544;46.760;15.942;2022-12-07T17:54:38;4.30;99.90
24412;DHT22;12544;46.760;15.942;2022-12-07T17:57:04;4.20;99.90
24412;DHT22;12544;46.760;15.942;2022-12-07T17:59:30;4.20;99.90
24412;DHT22;12544;46.760;15.942;2022-12-07T18:01:55;4.10;99.90
24412;DHT22;12544;46.760;15.942;2022-12-07T18:04:21;4.00;99.90
24412;DHT22;12544;46.760;15.942;2022-12-07T18:06:47;4.10;99.90
24412;DHT22;12544;46.760;15.942;2022-12-07T18:09:12;4.10;99.90
24412;DHT22;12544;46.760;15.942;2022-12-07T18:11:38;4.20;99.90
24412;DHT22;12544;46.760;15.942;2022-12-07T18:14:05;4.10;99.90
24412;DHT22;12544;46.760;15.942;2022-12-07T18:16:32;4.10;99.90
24412;DHT22;12544;46.760;15.942;2022-12-07T18:19:03;4.10;99.90